createdAt,value
2023-01-18T00:00:40.394Z,1.10
2023-01-18T00:03:13.243Z,1.10
2023-01-18T00:05:41.305Z,1.20
2023-01-18T00:08:13.019Z,1.10
2023-01-18T00:15:35.553Z,1.10
2023-01-18T00:20:31.079Z,1.10
2023-01-18T00:23:00.951Z,1.10
2023-01-18T00:27:56.094Z,1.00
2023-01-18T00:30:25.981Z,1.00
2023-01-18T00:32:55.761Z,1.00
2023-01-18T00:37:51.741Z,0.90
2023-01-18T00:40:22.942Z,0.90
2023-01-18T01:05:42.842Z,0.70
2023-01-18T01:10:48.968Z,0.60
2023-01-18T01:13:37.011Z,0.60
2023-01-18T01:16:29.736Z,0.50
2023-01-18T01:37:04.505Z,0.20
2023-01-18T01:51:58.813Z,-0.10
2023-01-18T01:54:34.545Z,-0.10
2023-01-18T01:57:08.260Z,-0.10
2023-01-18T01:59:38.484Z,-0.10
2023-01-18T02:07:01.156Z,-0.10
2023-01-18T02:11:55.726Z,0.00
2023-01-18T02:14:27.411Z,0.00
2023-01-18T02:17:14.720Z,0.00
2023-01-18T02:20:24.207Z,0.00
2023-01-18T02:23:28.334Z,0.00
2023-01-18T02:26:25.398Z,0.00
2023-01-18T02:29:07.510Z,0.10
2023-01-18T02:31:44.574Z,0.00
2023-01-18T02:34:30.952Z,0.00
2023-01-18T02:37:12.999Z,0.00
2023-01-18T02:40:14.542Z,0.00
2023-01-18T02:43:02.310Z,0.10
2023-01-18T02:46:01.103Z,0.10
2023-01-18T02:48:41.196Z,0.10
2023-01-18T02:53:40.166Z,0.10
2023-01-18T03:01:19.313Z,0.10
2023-01-18T03:03:50.158Z,0.20
2023-01-18T03:06:19.631Z,0.20
2023-01-18T03:08:52.591Z,0.20
2023-01-18T03:11:24.174Z,0.20
2023-01-18T03:14:22.357Z,0.20
2023-01-18T03:16:58.578Z,0.30
2023-01-18T03:19:58.962Z,0.30
2023-01-18T03:22:47.622Z,0.30
2023-01-18T03:25:19.154Z,2.10
2023-01-18T03:28:07.458Z,0.40
2023-01-18T03:30:54.278Z,0.40
2023-01-18T03:33:43.127Z,0.40
2023-01-18T03:36:23.736Z,0.50
2023-01-18T03:39:10.498Z,0.50
2023-01-18T03:41:43.513Z,0.50
2023-01-18T03:44:20.348Z,0.50
2023-01-18T03:49:16.654Z,0.50
2023-01-18T03:52:02.411Z,0.50
2023-01-18T03:54:48.512Z,0.50
2023-01-18T03:57:36.343Z,0.50
2023-01-18T04:00:07.438Z,0.50
2023-01-18T04:34:34.108Z,0.50
2023-01-18T04:51:47.285Z,0.50
2023-01-18T04:54:17.320Z,0.50
2023-01-18T04:59:16.375Z,0.50
2023-01-18T05:26:21.902Z,0.50
2023-01-18T05:28:50.235Z,0.50
2023-01-18T05:31:21.354Z,0.50
2023-01-18T05:55:59.940Z,0.40
2023-01-18T05:58:27.864Z,0.40
2023-01-18T06:00:55.274Z,0.40
2023-01-18T06:10:55.815Z,0.30
2023-01-18T06:13:23.833Z,0.20
2023-01-18T06:15:51.956Z,0.10
2023-01-18T06:35:35.124Z,0.00
2023-01-18T06:55:15.531Z,-0.10
2023-01-18T07:05:05.468Z,0.10
2023-01-18T08:18:49.946Z,0.60
2023-01-18T08:31:20.302Z,0.30
2023-01-18T08:33:48.839Z,0.20
2023-01-18T08:36:24.908Z,0.20
2023-01-18T08:38:59.246Z,0.30
2023-01-18T08:41:30.825Z,0.30
2023-01-18T08:43:59.677Z,0.30
2023-01-18T08:48:56.341Z,0.40
2023-01-18T08:56:26.613Z,0.50
2023-01-18T09:08:47.901Z,0.60
2023-01-18T09:28:52.346Z,0.90
2023-01-18T09:31:21.574Z,0.90
2023-01-18T09:41:37.920Z,0.90
2023-01-18T09:44:16.814Z,0.90
2023-01-18T09:49:23.548Z,1.00
2023-01-18T09:52:13.312Z,1.00
2023-01-18T09:54:58.098Z,1.10
2023-01-18T09:57:40.117Z,1.10
2023-01-18T10:00:24.307Z,1.20
2023-01-18T10:02:55.665Z,1.20
2023-01-18T10:05:26.844Z,1.30
2023-01-18T10:08:03.131Z,1.30
2023-01-18T10:10:43.950Z,1.30
2023-01-18T10:13:38.586Z,1.40
2023-01-18T10:16:14.699Z,1.50
2023-01-18T10:18:48.232Z,1.60
2023-01-18T10:21:28.996Z,1.70
2023-01-18T10:24:25.013Z,1.90
2023-01-18T10:26:56.605Z,2.00
2023-01-18T10:29:44.779Z,2.10
2023-01-18T10:32:17.880Z,2.10
2023-01-18T10:34:51.817Z,2.00
2023-01-18T10:37:38.956Z,2.10
2023-01-18T10:40:09.271Z,2.10
2023-01-18T10:42:46.147Z,2.10
2023-01-18T10:45:21.678Z,2.10
2023-01-18T10:47:49.958Z,2.10
2023-01-18T10:50:22.741Z,2.10
2023-01-18T10:55:18.763Z,2.10
2023-01-18T10:57:54.817Z,2.10
2023-01-18T11:00:30.855Z,2.10
2023-01-18T11:05:40.253Z,2.00
2023-01-18T11:08:31.601Z,2.10
2023-01-18T11:11:51.009Z,2.00
2023-01-18T11:14:32.048Z,2.00
2023-01-18T11:17:02.356Z,2.00
2023-01-18T11:24:27.904Z,2.20
2023-01-18T11:26:59.213Z,2.20
2023-01-18T11:29:46.299Z,2.20
2023-01-18T11:32:26.619Z,2.20
2023-01-18T11:34:55.959Z,2.20
2023-01-18T11:37:38.372Z,2.30
2023-01-18T11:40:35.030Z,2.30
2023-01-18T11:43:17.722Z,2.30
2023-01-18T11:45:59.512Z,2.30
2023-01-18T11:48:38.858Z,2.20
2023-01-18T11:54:00.599Z,2.20
2023-01-18T11:56:39.618Z,2.10
2023-01-18T11:59:14.946Z,2.00
2023-01-18T12:02:25.840Z,2.00
2023-01-18T12:05:14.061Z,1.90
2023-01-18T12:07:49.959Z,1.80
2023-01-18T12:10:25.620Z,1.80
2023-01-18T12:13:27.201Z,1.70
2023-01-18T12:16:46.373Z,1.70
2023-01-18T12:22:09.575Z,1.60
2023-01-18T12:25:20.411Z,1.50
2023-01-18T12:30:29.963Z,1.40
2023-01-18T12:33:16.220Z,1.40
2023-01-18T12:38:23.256Z,1.30
2023-01-18T12:41:13.910Z,1.30
2023-01-18T12:43:59.409Z,1.30
2023-01-18T12:46:32.566Z,1.30
2023-01-18T12:49:04.412Z,1.30
2023-01-18T12:51:37.678Z,1.40
2023-01-18T12:54:13.785Z,1.40
2023-01-18T12:56:44.227Z,1.50
2023-01-18T12:59:30.613Z,1.50
2023-01-18T13:02:23.870Z,1.50
2023-01-18T13:04:59.758Z,1.60
2023-01-18T13:07:37.841Z,1.50
2023-01-18T13:10:07.830Z,1.50
2023-01-18T13:15:19.061Z,1.60
2023-01-18T13:20:19.169Z,1.60
2023-01-18T13:23:19.132Z,1.50
2023-01-18T13:26:02.200Z,1.60
2023-01-18T13:31:01.875Z,1.50
2023-01-18T13:33:36.203Z,1.50
2023-01-18T13:38:41.574Z,1.50
2023-01-18T13:41:11.984Z,1.50
2023-01-18T13:48:51.399Z,1.40
2023-01-18T13:51:36.981Z,1.50
2023-01-18T13:56:36.717Z,1.50
2023-01-18T13:59:05.105Z,1.40
2023-01-18T14:01:35.310Z,1.40
2023-01-18T14:04:15.719Z,1.40
2023-01-18T14:06:45.185Z,1.50
2023-01-18T14:09:16.034Z,1.40
2023-01-18T14:11:52.060Z,1.40
2023-01-18T14:17:17.463Z,1.40
2023-01-18T14:20:00.243Z,1.40
2023-01-18T14:24:57.350Z,1.40
2023-01-18T14:27:28.463Z,1.40
2023-01-18T14:30:17.901Z,1.40
2023-01-18T14:33:02.862Z,1.40
2023-01-18T14:38:26.623Z,1.40
2023-01-18T14:40:59.979Z,1.40
2023-01-18T14:43:52.745Z,1.50
2023-01-18T14:46:26.633Z,1.40
2023-01-18T14:48:56.198Z,1.50
2023-01-18T14:53:55.393Z,1.40
2023-01-18T14:56:28.367Z,1.40
2023-01-18T14:58:58.556Z,1.40
2023-01-18T15:01:38.094Z,1.30
2023-01-18T15:04:18.387Z,1.30
2023-01-18T15:06:58.222Z,1.30
2023-01-18T15:09:28.274Z,1.30
2023-01-18T15:12:01.209Z,1.20
2023-01-18T15:14:32.534Z,1.20
2023-01-18T15:17:01.238Z,1.20
2023-01-18T15:19:41.939Z,1.20
2023-01-18T15:22:13.548Z,1.20
2023-01-18T15:24:42.936Z,1.20
2023-01-18T15:27:15.496Z,1.20
2023-01-18T15:29:51.183Z,1.20
2023-01-18T15:32:25.080Z,1.20
2023-01-18T15:34:53.399Z,1.20
2023-01-18T15:37:28.484Z,1.20
2023-01-18T15:40:02.405Z,1.20
2023-01-18T15:44:58.013Z,1.30
2023-01-18T15:47:32.682Z,1.30
2023-01-18T15:50:02.084Z,1.30
2023-01-18T15:52:46.439Z,1.30
2023-01-18T15:55:34.462Z,1.30
2023-01-18T15:58:19.031Z,1.30
2023-01-18T16:00:54.918Z,1.30
2023-01-18T16:03:53.174Z,1.20
2023-01-18T16:06:22.832Z,1.20
2023-01-18T16:08:56.803Z,1.30
2023-01-18T16:11:54.400Z,1.30
2023-01-18T16:14:38.330Z,1.20
2023-01-18T16:17:12.323Z,1.30
2023-01-18T16:19:49.531Z,1.40
2023-01-18T16:22:28.870Z,1.30
2023-01-18T16:25:18.216Z,1.40
2023-01-18T16:27:51.835Z,1.40
2023-01-18T16:30:25.727Z,1.40
2023-01-18T16:35:22.176Z,1.40
2023-01-18T16:37:49.806Z,1.40
2023-01-18T16:40:19.522Z,1.40
2023-01-18T16:43:02.947Z,1.30
2023-01-18T16:45:31.818Z,1.40
2023-01-18T17:00:23.875Z,1.40
2023-01-18T17:10:42.365Z,1.40
2023-01-18T17:18:13.396Z,1.40
2023-01-18T17:43:22.128Z,1.40
2023-01-18T18:00:45.089Z,1.50
2023-01-18T18:30:15.553Z,1.60
2023-01-18T18:45:30.837Z,1.50
2023-01-18T19:05:10.678Z,1.50
2023-01-18T19:10:06.297Z,1.50
2023-01-18T19:19:59.512Z,1.50
2023-01-18T20:06:46.162Z,1.40
2023-01-18T20:51:33.995Z,1.50
2023-01-18T21:04:00.855Z,1.50
2023-01-18T21:08:56.733Z,1.50
2023-01-18T21:13:54.102Z,1.40
2023-01-18T21:26:12.079Z,1.40
2023-01-18T21:31:07.000Z,1.60
2023-01-18T21:36:13.092Z,1.60
2023-01-18T21:46:47.996Z,1.50
2023-01-18T23:09:10.477Z,0.90
2023-01-18T23:14:24.083Z,0.80
2023-01-18T23:24:36.010Z,0.70
2023-01-18T23:27:04.485Z,0.70
2023-01-18T23:53:32.234Z,0.70
2023-01-18T23:55:59.578Z,0.70
